createdAt,value
2018-11-12T00:01:26.025Z,12.22
2018-11-12T00:06:28.521Z,12.25
2018-11-12T00:11:31.382Z,12.22
2018-11-12T00:16:33.900Z,12.08
2018-11-12T00:21:36.470Z,11.95
2018-11-12T00:26:38.916Z,11.81
2018-11-12T00:31:41.536Z,11.65
2018-11-12T00:36:44.654Z,11.81
2018-11-12T00:41:47.251Z,11.61
2018-11-12T00:46:50.235Z,11.56
2018-11-12T00:51:52.788Z,11.37
2018-11-12T00:56:55.412Z,11.69
2018-11-12T01:02:04.877Z,11.46
2018-11-12T01:07:07.353Z,11.49
2018-11-12T01:12:09.846Z,11.50
2018-11-12T01:17:12.357Z,11.39
2018-11-12T01:22:14.871Z,11.31
2018-11-12T01:27:17.376Z,11.24
2018-11-12T01:32:19.941Z,11.26
2018-11-12T01:37:23.178Z,11.40
2018-11-12T01:42:25.926Z,11.22
2018-11-12T01:47:28.714Z,11.24
2018-11-12T01:52:33.293Z,11.33
2018-11-12T01:57:36.344Z,11.33
2018-11-12T02:02:40.434Z,11.39
2018-11-12T02:07:42.971Z,11.43
2018-11-12T02:12:46.991Z,11.43
2018-11-12T02:17:50.052Z,11.37
2018-11-12T02:22:53.263Z,11.42
2018-11-12T02:27:56.223Z,11.40
2018-11-12T02:32:59.149Z,11.39
2018-11-12T02:38:01.722Z,11.37
2018-11-12T02:43:04.359Z,11.48
2018-11-12T02:48:06.836Z,11.45
2018-11-12T02:53:10.355Z,11.38
2018-11-12T02:58:12.973Z,11.42
2018-11-12T03:03:15.473Z,11.44
2018-11-12T03:08:17.906Z,11.61
2018-11-12T03:13:20.373Z,11.58
2018-11-12T03:18:22.988Z,11.51
2018-11-12T03:23:25.512Z,11.47
2018-11-12T03:28:28.184Z,11.46
2018-11-12T03:33:30.765Z,11.25
2018-11-12T03:38:33.264Z,11.14
2018-11-12T03:43:35.656Z,11.34
2018-11-12T03:48:38.358Z,11.48
2018-11-12T03:53:40.863Z,11.55
2018-11-12T03:58:43.277Z,11.61
2018-11-12T04:03:45.673Z,11.58
2018-11-12T04:08:48.124Z,11.61
2018-11-12T04:13:50.629Z,11.66
2018-11-12T04:18:53.039Z,11.76
2018-11-12T04:23:55.439Z,11.82
2018-11-12T04:28:57.958Z,11.89
2018-11-12T04:34:00.452Z,11.83
2018-11-12T04:39:03.231Z,11.79
2018-11-12T04:44:05.788Z,11.83
2018-11-12T04:49:08.234Z,11.70
2018-11-12T04:54:10.752Z,11.79
2018-11-12T04:59:13.342Z,11.82
2018-11-12T05:04:15.787Z,11.76
2018-11-12T05:09:18.165Z,11.81
2018-11-12T05:14:20.602Z,11.84
2018-11-12T05:19:23.084Z,11.77
2018-11-12T05:24:25.754Z,11.84
2018-11-12T05:29:28.175Z,11.80
2018-11-12T05:34:31.303Z,11.95
2018-11-12T05:39:33.672Z,11.79
2018-11-12T05:55:51.218Z,12.03
2018-11-12T06:51:23.007Z,12.01
2018-11-12T16:55:10.337Z,16.04
2018-11-12T17:00:16.177Z,15.26
2018-11-12T17:05:19.991Z,14.76
2018-11-12T17:10:24.109Z,14.65
2018-11-12T17:15:26.665Z,14.45
2018-11-12T17:20:29.254Z,14.24
2018-11-12T17:25:32.344Z,14.17
2018-11-12T17:30:34.988Z,14.00
2018-11-12T17:35:37.673Z,13.96
2018-11-12T17:40:40.308Z,13.86
2018-11-12T17:45:42.949Z,13.79
2018-11-12T17:50:45.426Z,13.74
2018-11-12T17:55:50.138Z,13.77
2018-11-12T18:00:55.861Z,13.65
2018-11-12T18:07:00.717Z,14.40
2018-11-12T18:12:03.254Z,13.82
2018-11-12T18:17:06.122Z,13.78
2018-11-12T18:22:09.720Z,13.72
2018-11-12T18:27:12.318Z,13.71
2018-11-12T18:32:15.090Z,13.70
2018-11-12T18:37:17.898Z,13.72
2018-11-12T18:42:20.667Z,13.76
2018-11-12T18:47:23.293Z,13.82
2018-11-12T18:52:25.979Z,13.80
2018-11-12T18:57:28.733Z,13.77
2018-11-12T19:02:31.233Z,13.76
2018-11-12T19:07:33.855Z,13.73
2018-11-12T19:12:36.495Z,13.64
2018-11-12T19:17:39.166Z,13.82
2018-11-12T19:22:41.872Z,13.86
2018-11-12T19:27:44.793Z,13.86
2018-11-12T19:32:48.657Z,13.87
2018-11-12T19:37:51.530Z,13.89
2018-11-12T19:42:54.907Z,13.90
2018-11-12T19:47:57.447Z,13.92
2018-11-12T19:53:00.340Z,13.82
2018-11-12T19:58:03.075Z,13.83
2018-11-12T20:03:05.732Z,13.82
2018-11-12T20:08:08.371Z,13.66
2018-11-12T20:13:11.059Z,13.61
2018-11-12T20:18:13.609Z,13.67
2018-11-12T20:23:16.227Z,13.78
2018-11-12T20:28:18.876Z,13.82
2018-11-12T20:33:21.550Z,13.82
2018-11-12T20:38:24.872Z,13.90
2018-11-12T20:43:28.714Z,13.94
2018-11-12T20:48:31.485Z,14.00
2018-11-12T20:53:34.233Z,13.96
2018-11-12T20:58:36.744Z,13.98
2018-11-12T21:03:40.139Z,14.00
2018-11-12T21:08:42.761Z,13.90
2018-11-12T21:13:45.360Z,13.86
2018-11-12T21:18:47.949Z,13.89
2018-11-12T21:23:51.517Z,14.01
2018-11-12T21:28:54.122Z,14.03
2018-11-12T21:33:56.722Z,14.03
2018-11-12T21:38:59.199Z,14.08
2018-11-12T21:44:01.887Z,14.06
2018-11-12T21:49:05.913Z,13.94
2018-11-12T21:54:08.442Z,13.92
2018-11-12T21:59:11.089Z,13.94
2018-11-12T22:04:13.632Z,13.86
2018-11-12T22:09:16.509Z,13.93
2018-11-12T22:14:19.004Z,13.92
2018-11-12T22:19:21.778Z,13.89
2018-11-12T22:24:24.193Z,13.80
2018-11-12T22:29:26.686Z,13.77
2018-11-12T22:34:29.147Z,13.80
2018-11-12T22:39:31.669Z,13.66
2018-11-12T22:44:34.161Z,13.72
2018-11-12T22:49:36.935Z,13.78
2018-11-12T22:54:39.383Z,13.76
2018-11-12T22:59:41.960Z,13.71
2018-11-12T23:04:44.456Z,13.66
2018-11-12T23:09:46.924Z,13.58
2018-11-12T23:14:49.489Z,13.58
2018-11-12T23:19:52.265Z,13.53
2018-11-12T23:24:54.814Z,13.54
2018-11-12T23:29:57.383Z,13.49
2018-11-12T23:34:59.880Z,13.53
2018-11-12T23:40:02.531Z,13.53
2018-11-12T23:45:05.544Z,13.48
2018-11-12T23:50:09.954Z,13.48
2018-11-12T23:55:13.008Z,13.47
